TimeCST,TemperatureF,Dew PointF,Humidity,Sea Level PressureIn,VisibilityMPH,Wind Direction,Wind SpeedMPH,Gust SpeedMPH,PrecipitationIn,Events,Conditions,WindDirDegrees,DateUTC
12:54 AM,30.9,28.0,89,29.69,4.0,WNW,12.7,-,0.00,Snow,Light Snow,300,2013-02-27 06:54:00
1:29 AM,30.2,28.4,93,29.67,4.0,NW,12.7,-,0.00,,Overcast,310,2013-02-27 07:29:00
1:54 AM,30.9,28.9,92,29.69,3.0,NW,11.5,-,0.00,,Overcast,310,2013-02-27 07:54:00
2:04 AM,30.2,28.4,93,29.67,3.0,NW,12.7,-,0.00,Rain,Light Freezing Rain,310,2013-02-27 08:04:00
2:54 AM,30.9,28.9,92,29.69,4.0,NW,13.8,-,0.00,Rain,Light Freezing Rain,310,2013-02-27 08:54:00
3:54 AM,30.9,28.9,92,29.69,3.0,NW,16.1,-,0.00,Rain,Light Freezing Rain,310,2013-02-27 09:54:00
4:34 AM,30.2,28.4,93,29.67,3.0,NW,13.8,-,0.00,Snow,Light Snow,310,2013-02-27 10:34:00
4:41 AM,30.2,28.4,93,29.67,2.0,NW,12.7,-,0.00,Snow,Light Snow,310,2013-02-27 10:41:00
4:54 AM,30.9,28.9,92,29.70,3.0,NW,15.0,-,0.00,Snow,Light Snow,310,2013-02-27 10:54:00
5:10 AM,30.2,28.4,93,29.68,2.5,NW,15.0,-,0.00,Snow,Light Snow,310,2013-02-27 11:10:00
5:29 AM,30.2,28.4,93,29.69,1.2,NW,12.7,-,0.01,Snow,Light Snow,310,2013-02-27 11:29:00
5:54 AM,30.9,28.9,92,29.71,1.2,WNW,15.0,-,0.01,Snow,Light Snow,300,2013-02-27 11:54:00
6:46 AM,30.2,28.4,93,29.70,2.5,WNW,12.7,-,0.00,Snow,Light Snow,300,2013-02-27 12:46:00
6:54 AM,30.0,28.0,92,29.73,2.0,WNW,11.5,-,0.00,Snow,Light Snow,300,2013-02-27 12:54:00
7:02 AM,30.2,28.4,93,29.71,1.8,WNW,13.8,-,N/A,Snow,Light Snow,300,2013-02-27 13:02:00
7:10 AM,30.2,28.4,93,29.71,1.8,WNW,13.8,-,0.00,Snow,Light Snow,300,2013-02-27 13:10:00
7:31 AM,30.2,28.4,93,29.71,2.5,WNW,12.7,-,0.00,Snow,Light Snow,300,2013-02-27 13:31:00
7:34 AM,30.2,28.4,93,29.72,1.8,WNW,11.5,-,0.00,Snow,Light Snow,300,2013-02-27 13:34:00
7:54 AM,30.9,28.0,89,29.75,1.8,WNW,10.4,-,0.00,Snow,Light Snow,300,2013-02-27 13:54:00
8:54 AM,30.2,28.4,93,29.73,1.2,WNW,13.8,-,N/A,Snow,Light Snow,300,2013-02-27 14:54:00
9:20 AM,30.2,28.4,93,29.73,2.0,WNW,13.8,-,0.00,Snow,Light Snow,300,2013-02-27 15:20:00
9:54 AM,32.0,28.9,88,29.76,2.0,WNW,12.7,-,0.00,Snow,Light Snow,300,2013-02-27 15:54:00
10:14 AM,32.0,28.4,87,29.74,1.8,WNW,12.7,-,0.00,Snow,Light Snow,300,2013-02-27 16:14:00
10:22 AM,32.0,28.4,87,29.74,2.0,WNW,15.0,-,0.00,Snow,Light Snow,300,2013-02-27 16:22:00
10:37 AM,32.0,28.4,87,29.74,1.8,WNW,12.7,-,0.00,Snow,Light Snow,300,2013-02-27 16:37:00
10:44 AM,32.0,28.4,87,29.74,2.0,NW,12.7,-,0.00,Snow,Light Snow,310,2013-02-27 16:44:00
10:54 AM,32.0,28.9,88,29.77,1.8,WNW,12.7,-,0.00,Snow,Light Snow,300,2013-02-27 16:54:00
11:46 AM,32.0,28.4,87,29.74,2.5,WNW,12.7,-,0.00,Snow,Light Snow,290,2013-02-27 17:46:00
11:54 AM,32.0,28.9,88,29.77,2.5,West,12.7,-,0.00,Snow,Light Snow,280,2013-02-27 17:54:00
12:06 PM,32.0,28.4,87,29.74,1.0,WNW,13.8,-,0.00,Snow,Light Snow,290,2013-02-27 18:06:00
12:14 PM,32.0,28.4,87,29.74,0.8,WNW,12.7,-,0.00,Snow,Light Snow,290,2013-02-27 18:14:00
12:23 PM,32.0,28.4,87,29.74,1.0,WNW,17.3,21.9,0.00,Snow,Light Snow,290,2013-02-27 18:23:00
12:54 PM,32.0,28.0,85,29.77,1.8,WNW,15.0,-,0.00,Snow,Light Snow,290,2013-02-27 18:54:00
1:16 PM,32.0,28.4,87,29.75,1.0,WNW,16.1,-,0.00,Snow,Light Snow,290,2013-02-27 19:16:00
1:23 PM,32.0,28.4,87,29.75,0.8,WNW,17.3,-,0.00,Snow,Light Snow,290,2013-02-27 19:23:00
1:39 PM,32.0,28.4,87,29.75,1.0,West,13.8,-,0.00,Snow,Light Snow,280,2013-02-27 19:39:00
1:49 PM,32.0,28.4,87,29.75,0.8,West,12.7,-,0.00,Snow,Light Snow,280,2013-02-27 19:49:00
1:54 PM,32.0,28.9,88,29.78,0.8,WNW,15.0,-,0.00,Snow,Light Snow,290,2013-02-27 19:54:00
2:07 PM,32.0,28.4,87,29.75,1.8,West,17.3,-,0.00,Snow,Light Snow,280,2013-02-27 20:07:00
2:21 PM,32.0,28.4,87,29.76,0.8,WNW,15.0,-,0.00,Snow,Light Snow,290,2013-02-27 20:21:00
2:31 PM,32.0,28.4,87,29.76,1.0,West,15.0,-,0.00,Snow,Light Snow,280,2013-02-27 20:31:00
2:54 PM,32.0,28.0,85,29.79,1.2,WNW,15.0,-,0.00,Snow,Light Snow,290,2013-02-27 20:54:00
3:51 PM,30.2,28.4,93,29.79,1.2,WNW,13.8,-,0.00,Snow,Light Snow,290,2013-02-27 21:51:00
3:54 PM,30.9,28.0,89,29.81,1.2,WNW,15.0,-,0.00,Snow,Light Snow,290,2013-02-27 21:54:00
4:01 PM,30.2,28.4,93,29.79,1.5,WNW,13.8,-,0.00,Snow,Light Snow,300,2013-02-27 22:01:00
4:54 PM,30.9,28.0,89,29.83,1.5,WNW,12.7,-,0.00,Snow,Light Snow,300,2013-02-27 22:54:00
5:51 PM,30.2,28.4,93,29.82,2.5,WNW,16.1,-,0.00,Snow,Light Snow,300,2013-02-27 23:51:00
5:54 PM,30.0,28.0,92,29.85,2.5,WNW,15.0,-,0.00,Snow,Light Snow,290,2013-02-27 23:54:00
6:03 PM,30.2,26.6,86,29.83,3.0,WNW,17.3,-,0.00,Snow,Light Snow,300,2013-02-28 00:03:00
6:10 PM,30.2,26.6,86,29.83,2.5,WNW,17.3,-,0.00,Snow,Light Snow,290,2013-02-28 00:10:00
6:21 PM,30.2,26.6,86,29.83,4.0,WNW,13.8,-,0.00,Snow,Light Snow,290,2013-02-28 00:21:00
6:54 PM,30.0,28.0,92,29.87,2.5,WNW,18.4,-,0.00,Snow,Light Snow,300,2013-02-28 00:54:00
7:08 PM,30.2,26.6,86,29.85,4.0,WNW,13.8,-,0.00,Snow,Light Snow,290,2013-02-28 01:08:00
7:54 PM,30.0,27.0,88,29.87,6.0,WNW,15.0,-,0.00,,Overcast,300,2013-02-28 01:54:00
8:54 PM,30.0,27.0,88,29.88,7.0,WNW,16.1,-,0.00,,Overcast,300,2013-02-28 02:54:00
9:54 PM,30.0,27.0,88,29.89,7.0,WNW,13.8,-,N/A,,Overcast,290,2013-02-28 03:54:00
10:54 PM,30.0,26.1,85,29.90,7.0,WNW,13.8,-,N/A,,Overcast,290,2013-02-28 04:54:00
11:54 PM,30.2,26.6,86,29.87,5.0,WNW,13.8,-,N/A,,Overcast,300,2013-02-28 05:54:00